EDLI 251621Z 22003KT 9999 ///083 ///090 25/12 Q1012

Wind aktuell: 230° mit 4 kt

Wind 10 Minuten extrem:

190° bis 260° mit 2 kt bis 5 kt

Seitenwindkomponente: 3.2 kt

Wolkengrenze 1: 6700

Wolkengrenze 2: 7600

Wolkengrenze 3: 8300

Sichtweite: 20.000 Meter

Vorheriges Wetter:

Aktuelles Wetter:

Temperatur: 25.4 °C

Taupunkt: 12.1 °C

Luftfeuchtigkeit: 43%

QNH: 1012 hPa 

QFE: 995 hPa